createdAt,value
2023-02-12T00:00:00.332Z,48.60
2023-02-12T00:02:27.175Z,54.58
2023-02-12T00:04:53.845Z,59.45
2023-02-12T00:07:20.472Z,54.03
2023-02-12T00:09:47.101Z,57.80
2023-02-12T00:12:13.720Z,79.07
2023-02-12T00:14:40.471Z,56.38
2023-02-12T00:17:07.082Z,66.28
2023-02-12T00:19:33.722Z,69.88
2023-02-12T00:22:00.343Z,59.22
2023-02-12T00:24:27.954Z,53.25
2023-02-12T00:26:54.694Z,62.97
2023-02-12T00:29:21.397Z,84.32
2023-02-12T00:31:48.118Z,54.90
2023-02-12T00:34:14.888Z,57.17
2023-02-12T00:36:41.523Z,65.07
2023-02-12T00:39:08.141Z,62.50
2023-02-12T00:41:34.731Z,57.83
2023-02-12T00:44:01.342Z,51.38
2023-02-12T00:46:28.057Z,50.33
2023-02-12T00:48:54.844Z,52.85
2023-02-12T00:51:21.697Z,54.92
2023-02-12T00:53:48.384Z,54.90
2023-02-12T00:56:15.218Z,104.95
2023-02-12T00:58:41.939Z,48.72
2023-02-12T01:01:08.689Z,67.93
2023-02-12T01:03:35.446Z,49.63
2023-02-12T01:06:02.173Z,51.33
2023-02-12T01:08:28.839Z,48.10
2023-02-12T01:10:59.387Z,76.75
2023-02-12T01:13:27.001Z,92.95
2023-02-12T01:16:23.422Z,46.63
2023-02-12T01:18:54.440Z,62.45
2023-02-12T01:21:25.572Z,48.08
2023-02-12T01:23:52.212Z,58.03
2023-02-12T01:26:20.834Z,83.53
2023-02-12T01:28:53.621Z,87.37
2023-02-12T01:31:23.668Z,51.42
2023-02-12T01:33:52.076Z,69.10
2023-02-12T01:36:19.045Z,50.88
2023-02-12T01:38:45.666Z,49.10
2023-02-12T01:41:15.706Z,67.93
2023-02-12T01:43:42.501Z,63.30
2023-02-12T01:46:13.448Z,46.60
2023-02-12T01:48:45.510Z,56.80
2023-02-12T01:51:16.492Z,56.33
2023-02-12T01:53:50.922Z,75.45
2023-02-12T01:56:18.197Z,47.90
2023-02-12T01:58:47.416Z,46.78
2023-02-12T02:01:19.737Z,106.45
2023-02-12T02:03:50.058Z,109.05
2023-02-12T02:06:21.328Z,66.55
2023-02-12T02:08:48.589Z,53.55
2023-02-12T02:11:33.821Z,92.88
2023-02-12T02:14:19.115Z,59.67
2023-02-12T02:17:06.698Z,76.95
2023-02-12T02:20:01.623Z,99.45
2023-02-12T02:22:59.308Z,50.25
2023-02-12T02:25:46.593Z,53.90
2023-02-12T02:28:19.077Z,56.55
2023-02-12T02:31:05.787Z,52.55
2023-02-12T02:33:53.910Z,45.42
2023-02-12T02:36:32.670Z,43.97
2023-02-12T02:39:11.119Z,58.85
2023-02-12T02:41:53.296Z,41.40
2023-02-12T02:44:36.729Z,62.95
2023-02-12T02:47:08.047Z,53.15
2023-02-12T02:49:40.475Z,54.65
2023-02-12T02:52:12.439Z,47.53
2023-02-12T02:54:54.468Z,49.47
2023-02-12T02:57:29.810Z,51.05
2023-02-12T03:00:05.287Z,42.38
2023-02-12T03:02:35.497Z,40.20
2023-02-12T03:05:22.498Z,52.17
2023-02-12T03:07:58.053Z,47.65
2023-02-12T03:10:31.682Z,48.13
2023-02-12T03:13:14.753Z,48.50
2023-02-12T03:16:02.943Z,46.55
2023-02-12T03:18:42.790Z,52.83
2023-02-12T03:21:16.087Z,74.65
2023-02-12T03:23:52.927Z,59.03
2023-02-12T03:26:27.449Z,54.30
2023-02-12T03:28:54.174Z,92.32
2023-02-12T03:31:35.667Z,61.85
2023-02-12T03:34:15.321Z,56.22
2023-02-12T03:37:05.973Z,50.60
2023-02-12T03:39:35.330Z,52.30
2023-02-12T03:42:16.252Z,50.45
2023-02-12T03:44:56.520Z,47.03
2023-02-12T03:47:37.992Z,52.00
2023-02-12T03:50:18.919Z,53.65
2023-02-12T03:52:47.161Z,58.50
2023-02-12T03:55:14.560Z,65.60
2023-02-12T03:57:45.537Z,61.88
2023-02-12T04:00:20.987Z,58.92
2023-02-12T04:02:48.297Z,53.75
2023-02-12T04:05:24.304Z,50.45
2023-02-12T04:07:52.754Z,52.67
2023-02-12T04:10:28.087Z,75.72
2023-02-12T04:13:01.125Z,63.08
2023-02-12T04:15:37.793Z,50.72
2023-02-12T04:18:20.571Z,54.58
2023-02-12T04:21:25.694Z,59.35
2023-02-12T04:24:26.173Z,62.40
2023-02-12T04:27:16.410Z,51.35
2023-02-12T04:29:52.118Z,49.80
2023-02-12T04:32:29.675Z,49.85
2023-02-12T04:35:05.595Z,88.03
2023-02-12T04:37:43.899Z,47.85
2023-02-12T04:40:14.529Z,92.22
2023-02-12T04:42:46.422Z,94.28
2023-02-12T04:45:15.995Z,54.78
2023-02-12T04:47:42.662Z,97.88
2023-02-12T04:50:09.760Z,61.08
2023-02-12T04:52:36.387Z,102.88
2023-02-12T04:55:03.423Z,59.58
2023-02-12T04:57:30.097Z,59.05
2023-02-12T04:59:56.767Z,55.70
2023-02-12T05:02:23.501Z,53.42
2023-02-12T05:04:50.968Z,54.15
2023-02-12T05:07:17.662Z,84.88
2023-02-12T05:09:44.295Z,65.15
2023-02-12T05:12:10.921Z,59.15
2023-02-12T05:14:37.595Z,63.80
2023-02-12T05:17:04.197Z,50.03
2023-02-12T05:19:30.938Z,75.22
2023-02-12T05:21:57.606Z,55.88
2023-02-12T05:24:24.291Z,54.58
2023-02-12T05:26:51.040Z,49.00
2023-02-12T05:29:17.941Z,56.90
2023-02-12T05:31:45.187Z,94.93
2023-02-12T05:34:13.120Z,57.50
2023-02-12T05:36:40.296Z,54.72
2023-02-12T05:39:07.452Z,87.95
2023-02-12T05:41:37.238Z,66.50
2023-02-12T05:44:05.201Z,77.47
2023-02-12T05:46:32.344Z,61.28
2023-02-12T05:48:59.190Z,65.07
2023-02-12T05:51:27.484Z,87.05
2023-02-12T05:54:01.798Z,77.80
2023-02-12T05:56:32.310Z,77.88
2023-02-12T05:59:02.453Z,84.13
2023-02-12T06:01:43.471Z,122.70
2023-02-12T06:04:23.669Z,105.43
2023-02-12T06:06:52.119Z,78.07
2023-02-12T06:09:19.492Z,119.35
2023-02-12T06:11:46.364Z,138.30
2023-02-12T06:14:17.061Z,78.75
2023-02-12T06:16:49.605Z,129.65
2023-02-12T06:19:17.222Z,137.82
2023-02-12T06:21:44.356Z,99.20
2023-02-12T06:24:15.922Z,168.20
2023-02-12T06:26:43.208Z,115.28
2023-02-12T06:29:09.889Z,79.13
2023-02-12T06:31:37.532Z,81.68
2023-02-12T06:34:07.696Z,87.20
2023-02-12T06:36:36.353Z,77.43
2023-02-12T06:39:03.874Z,75.73
2023-02-12T06:41:30.598Z,87.00
2023-02-12T06:43:57.203Z,141.20
2023-02-12T06:46:24.208Z,76.55
2023-02-12T06:48:55.382Z,144.57
2023-02-12T06:51:23.536Z,134.60
2023-02-12T06:53:51.540Z,136.63
2023-02-12T06:56:18.788Z,85.68
2023-02-12T06:58:47.533Z,70.15
2023-02-12T07:01:17.778Z,101.80
2023-02-12T07:03:55.776Z,84.65
2023-02-12T07:06:23.028Z,69.68
2023-02-12T07:08:49.990Z,72.03
2023-02-12T07:11:17.536Z,90.65
2023-02-12T07:13:45.240Z,69.97
2023-02-12T07:16:14.583Z,77.38
2023-02-12T07:21:08.724Z,71.90
2023-02-12T07:23:36.404Z,175.68
2023-02-12T07:26:07.650Z,173.82
2023-02-12T07:28:35.201Z,129.20
2023-02-12T07:31:16.572Z,114.32
2023-02-12T07:33:43.618Z,130.60
2023-02-12T07:36:13.400Z,100.60
2023-02-12T07:38:40.615Z,78.25
2023-02-12T07:41:17.003Z,84.78
2023-02-12T07:43:45.872Z,85.88
2023-02-12T07:46:16.881Z,83.30
2023-02-12T07:48:44.601Z,79.07
2023-02-12T07:51:13.895Z,79.90
2023-02-12T07:53:41.129Z,88.40
2023-02-12T07:56:17.573Z,133.20
2023-02-12T07:58:46.100Z,101.38
2023-02-12T08:01:24.445Z,113.83
2023-02-12T08:03:51.689Z,94.45
2023-02-12T08:06:23.724Z,166.05
2023-02-12T08:08:57.146Z,103.70
2023-02-12T08:11:25.438Z,92.90
2023-02-12T08:13:52.710Z,105.25
2023-02-12T08:16:22.520Z,86.30
2023-02-12T08:18:50.116Z,88.95
2023-02-12T08:21:28.209Z,98.80
2023-02-12T08:23:56.477Z,97.03
2023-02-12T08:26:24.462Z,100.47
2023-02-12T08:28:54.481Z,79.15
2023-02-12T08:31:27.790Z,85.50
2023-02-12T08:33:55.699Z,68.53
2023-02-12T08:36:24.970Z,75.75
2023-02-12T08:38:51.929Z,95.47
2023-02-12T08:41:24.487Z,81.72
2023-02-12T08:43:53.862Z,81.43
2023-02-12T08:46:23.115Z,74.93
2023-02-12T08:48:57.048Z,87.03
2023-02-12T08:51:26.570Z,72.18
2023-02-12T08:53:56.680Z,72.63
2023-02-12T08:56:24.968Z,91.90
2023-02-12T08:58:52.450Z,82.40
2023-02-12T09:01:24.722Z,84.03
2023-02-12T09:03:52.459Z,70.72
2023-02-12T09:06:21.436Z,83.57
2023-02-12T09:08:48.794Z,81.53
2023-02-12T09:11:18.429Z,68.18
2023-02-12T09:13:46.988Z,74.03
2023-02-12T09:16:14.471Z,87.83
2023-02-12T09:18:41.824Z,67.25
2023-02-12T09:21:22.685Z,67.28
2023-02-12T09:23:49.969Z,69.25
2023-02-12T09:26:20.745Z,60.58
2023-02-12T09:28:48.752Z,61.42
2023-02-12T09:31:18.377Z,65.18
2023-02-12T09:33:45.108Z,58.58
2023-02-12T09:36:16.913Z,53.88
2023-02-12T09:38:44.257Z,67.93
2023-02-12T09:41:32.356Z,60.17
2023-02-12T09:44:25.313Z,61.25
2023-02-12T09:46:58.958Z,66.10
2023-02-12T09:49:46.648Z,57.60
2023-02-12T09:52:17.995Z,54.78
2023-02-12T09:54:45.241Z,54.05
2023-02-12T09:57:25.301Z,40.25
2023-02-12T09:59:58.356Z,51.05
2023-02-12T10:02:25.127Z,47.33
2023-02-12T10:05:01.277Z,43.05
2023-02-12T10:07:51.291Z,45.80
2023-02-12T10:10:27.171Z,47.88
2023-02-12T10:13:00.100Z,45.45
2023-02-12T10:15:34.484Z,46.70
2023-02-12T10:18:49.728Z,48.35
2023-02-12T10:21:40.521Z,39.85
2023-02-12T10:24:41.454Z,44.65
2023-02-12T10:27:25.736Z,39.35
2023-02-12T10:29:54.826Z,41.78
2023-02-12T10:32:26.829Z,43.45
2023-02-12T10:34:56.560Z,47.53
2023-02-12T10:37:32.570Z,34.35
2023-02-12T10:40:06.338Z,39.28
2023-02-12T10:42:40.928Z,36.50
2023-02-12T10:45:15.266Z,35.67
2023-02-12T10:47:42.009Z,38.63
2023-02-12T10:50:38.205Z,37.30
2023-02-12T10:53:05.011Z,30.88
2023-02-12T10:55:35.559Z,34.70
2023-02-12T10:58:04.546Z,33.80
2023-02-12T11:00:34.116Z,31.58
2023-02-12T11:03:12.617Z,25.02
2023-02-12T11:05:42.940Z,25.17
2023-02-12T11:08:33.927Z,28.27
2023-02-12T11:11:05.100Z,28.00
2023-02-12T11:13:32.137Z,26.25
2023-02-12T11:15:59.242Z,28.83
2023-02-12T11:18:28.968Z,31.23
2023-02-12T11:20:59.925Z,29.27
2023-02-12T11:23:34.217Z,33.20
2023-02-12T11:26:21.036Z,26.08
2023-02-12T11:28:55.556Z,24.83
2023-02-12T11:31:28.529Z,24.77
2023-02-12T11:34:17.348Z,26.75
2023-02-12T11:36:50.601Z,25.90
2023-02-12T11:39:39.090Z,26.85
2023-02-12T11:42:15.385Z,23.37
2023-02-12T11:44:48.501Z,28.75
2023-02-12T11:47:36.230Z,22.80
2023-02-12T11:50:05.877Z,21.73
2023-02-12T11:52:35.613Z,21.23
2023-02-12T11:55:19.128Z,19.67
2023-02-12T11:57:48.208Z,19.80
2023-02-12T12:00:35.815Z,23.25
2023-02-12T12:03:17.712Z,20.13
2023-02-12T12:05:51.490Z,20.90
2023-02-12T12:08:29.798Z,21.95
2023-02-12T12:11:12.795Z,23.08
2023-02-12T12:13:48.024Z,22.58
2023-02-12T12:16:41.511Z,20.50
2023-02-12T12:19:43.345Z,22.02
2023-02-12T12:22:48.819Z,18.63
2023-02-12T12:25:30.518Z,25.55
2023-02-12T12:28:20.405Z,25.95
2023-02-12T12:31:08.517Z,19.33
2023-02-12T12:33:56.606Z,18.63
2023-02-12T12:36:23.256Z,17.60
2023-02-12T12:39:01.912Z,17.90
2023-02-12T12:41:55.972Z,13.93
2023-02-12T12:44:44.007Z,13.35
2023-02-12T12:47:28.835Z,12.45
2023-02-12T12:50:21.248Z,10.88
2023-02-12T12:52:47.822Z,12.15
2023-02-12T12:55:34.207Z,11.50
2023-02-12T12:58:07.733Z,12.90
2023-02-12T13:01:04.029Z,13.57
2023-02-12T13:03:39.841Z,13.32
2023-02-12T13:06:31.321Z,12.43
2023-02-12T13:09:26.671Z,11.95
2023-02-12T13:11:56.127Z,10.38
2023-02-12T13:17:27.076Z,13.55
2023-02-12T13:20:04.677Z,13.25
2023-02-12T13:22:50.185Z,16.35
2023-02-12T13:25:40.141Z,14.10
2023-02-12T13:28:14.932Z,13.50
2023-02-12T13:30:49.525Z,13.15
2023-02-12T13:33:24.417Z,14.38
2023-02-12T13:35:59.373Z,14.10
2023-02-12T13:38:32.108Z,14.80
2023-02-12T13:41:03.173Z,13.95
2023-02-12T13:44:00.232Z,16.85
2023-02-12T13:46:50.112Z,13.63
2023-02-12T13:49:38.587Z,12.88
2023-02-12T13:52:11.973Z,13.90
2023-02-12T13:55:10.655Z,15.02
2023-02-12T13:57:37.290Z,13.80
2023-02-12T14:00:08.952Z,14.30
2023-02-12T14:02:37.334Z,11.73
2023-02-12T14:05:22.655Z,12.47
2023-02-12T14:07:52.983Z,14.32
2023-02-12T14:10:39.720Z,12.25
2023-02-12T14:13:20.744Z,12.68
2023-02-12T14:15:56.282Z,12.60
2023-02-12T14:18:25.420Z,10.70
2023-02-12T14:21:13.958Z,11.93
2023-02-12T14:23:46.003Z,14.67
2023-02-12T14:26:23.587Z,15.05
2023-02-12T14:28:57.940Z,11.75
2023-02-12T14:31:27.676Z,11.90
2023-02-12T14:34:06.806Z,11.38
2023-02-12T14:36:33.475Z,10.85
2023-02-12T14:39:04.057Z,9.95
2023-02-12T14:41:34.861Z,12.13
2023-02-12T14:44:30.795Z,13.60
2023-02-12T14:47:21.627Z,12.20
2023-02-12T14:49:55.786Z,11.95
2023-02-12T14:52:39.663Z,15.85
2023-02-12T14:55:19.074Z,12.48
2023-02-12T15:00:21.339Z,11.88
2023-02-12T15:03:12.591Z,13.43
2023-02-12T15:05:48.408Z,12.35
2023-02-12T15:08:49.673Z,12.35
2023-02-12T15:11:35.216Z,14.32
2023-02-12T15:14:11.588Z,14.25
2023-02-12T15:16:52.873Z,15.95
2023-02-12T15:19:47.024Z,15.40
2023-02-12T15:22:30.627Z,14.85
2023-02-12T15:25:19.255Z,14.00
2023-02-12T15:27:48.818Z,14.77
2023-02-12T15:30:26.129Z,13.60
2023-02-12T15:32:56.371Z,14.05
2023-02-12T15:35:27.477Z,12.57
2023-02-12T15:37:56.140Z,11.32
2023-02-12T15:40:23.417Z,12.23
2023-02-12T15:42:59.293Z,15.10
2023-02-12T15:45:31.360Z,18.02
2023-02-12T15:48:20.814Z,15.90
2023-02-12T15:53:17.358Z,13.93
2023-02-12T15:55:48.622Z,10.80
2023-02-12T15:58:26.656Z,11.27
2023-02-12T16:00:55.579Z,10.45
2023-02-12T16:03:25.290Z,11.95
2023-02-12T16:05:56.282Z,10.32
2023-02-12T16:08:24.427Z,12.70
2023-02-12T16:10:54.062Z,10.52
2023-02-12T16:13:35.464Z,11.25
2023-02-12T16:16:15.894Z,10.48
2023-02-12T16:18:43.540Z,11.38
2023-02-12T16:21:22.342Z,10.18
2023-02-12T16:23:51.257Z,10.07
2023-02-12T16:26:26.651Z,12.55
2023-02-12T16:28:56.751Z,11.63
2023-02-12T16:31:26.441Z,12.55
2023-02-12T16:33:56.205Z,11.73
2023-02-12T16:36:22.823Z,11.25
2023-02-12T16:39:02.243Z,13.02
2023-02-12T16:41:33.532Z,11.25
2023-02-12T16:44:00.095Z,11.35
2023-02-12T16:46:30.476Z,10.60
2023-02-12T16:49:00.632Z,10.55
2023-02-12T16:51:30.097Z,10.57
2023-02-12T16:56:27.285Z,11.13
2023-02-12T16:58:58.471Z,12.10
2023-02-12T17:01:34.523Z,12.02
2023-02-12T17:04:05.695Z,10.82
2023-02-12T17:06:33.134Z,10.10
2023-02-12T17:09:00.371Z,9.63
2023-02-12T17:11:29.082Z,10.30
2023-02-12T17:13:56.780Z,13.98
2023-02-12T17:16:32.275Z,12.63
2023-02-12T17:19:00.600Z,12.23
2023-02-12T17:21:39.739Z,12.73
2023-02-12T17:24:29.307Z,13.55
2023-02-12T17:26:56.179Z,11.20
2023-02-12T17:29:24.966Z,10.38
2023-02-12T17:31:53.931Z,10.07
2023-02-12T17:34:20.775Z,10.57
2023-02-12T17:36:47.534Z,9.98
2023-02-12T17:39:15.720Z,12.38
2023-02-12T17:41:44.277Z,9.57
2023-02-12T17:44:13.288Z,10.57
2023-02-12T17:46:39.923Z,11.68
2023-02-12T17:49:06.555Z,10.13
2023-02-12T17:51:33.286Z,11.13
2023-02-12T17:53:59.995Z,11.13
2023-02-12T17:56:26.716Z,12.02
2023-02-12T17:58:53.462Z,16.88
2023-02-12T18:01:22.576Z,11.82
2023-02-12T18:03:52.391Z,12.65
2023-02-12T18:06:25.753Z,11.27
2023-02-12T18:08:52.761Z,13.98
2023-02-12T18:11:20.277Z,13.95
2023-02-12T18:13:47.338Z,14.98
2023-02-12T18:16:14.608Z,15.05
2023-02-12T18:18:41.400Z,12.85
2023-02-12T18:21:13.702Z,11.90
2023-02-12T18:23:40.677Z,11.07
2023-02-12T18:26:16.134Z,18.65
2023-02-12T18:28:42.917Z,18.45
2023-02-12T18:31:10.986Z,20.70
2023-02-12T18:33:38.823Z,18.90
2023-02-12T18:36:11.267Z,18.67
2023-02-12T18:38:39.766Z,18.83
2023-02-12T18:41:22.024Z,19.50
2023-02-12T18:43:48.662Z,16.30
2023-02-12T18:46:21.709Z,19.90
2023-02-12T18:48:49.161Z,20.17
2023-02-12T18:51:22.655Z,18.15
2023-02-12T18:54:05.902Z,15.88
2023-02-12T18:56:36.480Z,18.25
2023-02-12T18:59:05.213Z,15.52
2023-02-12T19:01:33.202Z,15.23
2023-02-12T19:04:01.445Z,17.85
2023-02-12T19:06:29.936Z,18.73
2023-02-12T19:08:58.348Z,17.38
2023-02-12T19:11:26.523Z,19.05
2023-02-12T19:13:53.807Z,17.00
2023-02-12T19:16:21.829Z,18.33
2023-02-12T19:18:49.362Z,14.90
2023-02-12T19:21:19.849Z,17.95
2023-02-12T19:23:46.947Z,20.05
2023-02-12T19:26:16.335Z,21.77
2023-02-12T19:31:15.652Z,22.00
2023-02-12T19:33:43.611Z,17.98
2023-02-12T19:36:12.416Z,15.65
2023-02-12T19:38:39.478Z,15.82
2023-02-12T19:41:13.596Z,17.52
2023-02-12T19:43:40.562Z,15.48
2023-02-12T19:46:10.526Z,15.13
2023-02-12T19:48:37.600Z,15.90
2023-02-12T19:51:04.807Z,18.08
2023-02-12T19:53:31.893Z,20.63
2023-02-12T19:56:05.165Z,19.42
2023-02-12T19:58:31.905Z,20.88
2023-02-12T20:00:59.074Z,17.17
2023-02-12T20:03:26.657Z,21.17
2023-02-12T20:06:05.245Z,19.63
2023-02-12T20:08:33.180Z,15.97
2023-02-12T20:10:59.880Z,17.38
2023-02-12T20:13:26.512Z,18.70
2023-02-12T20:15:53.911Z,18.63
2023-02-12T20:18:20.625Z,19.10
2023-02-12T20:20:47.216Z,18.85
2023-02-12T20:23:13.928Z,17.80
2023-02-12T20:25:44.975Z,17.95
2023-02-12T20:28:11.699Z,22.70
2023-02-12T20:30:42.756Z,20.73
2023-02-12T20:33:10.438Z,18.73
2023-02-12T20:35:37.569Z,21.85
2023-02-12T20:38:05.753Z,21.63
2023-02-12T20:40:33.074Z,17.83
2023-02-12T20:43:00.760Z,23.88
2023-02-12T20:45:28.090Z,27.60
2023-02-12T20:47:54.807Z,20.02
2023-02-12T20:50:21.364Z,22.88
2023-02-12T20:52:48.126Z,22.08
2023-02-12T20:55:14.784Z,20.50
2023-02-12T20:57:41.443Z,19.55
2023-02-12T21:00:08.700Z,20.02
2023-02-12T21:02:35.535Z,17.65
2023-02-12T21:05:02.286Z,19.20
2023-02-12T21:07:28.912Z,23.90
2023-02-12T21:09:55.598Z,18.27
2023-02-12T21:12:22.215Z,21.55
2023-02-12T21:14:48.918Z,15.95
2023-02-12T21:17:15.571Z,15.27
2023-02-12T21:19:42.281Z,14.75
2023-02-12T21:22:08.982Z,15.52
2023-02-12T21:24:35.678Z,14.18
2023-02-12T21:27:02.282Z,16.08
2023-02-12T21:29:33.162Z,13.57
2023-02-12T21:32:01.105Z,13.05
2023-02-12T21:34:27.993Z,17.48
2023-02-12T21:36:56.107Z,17.75
2023-02-12T21:39:28.157Z,15.25
2023-02-12T21:42:00.934Z,15.60
2023-02-12T21:44:28.501Z,16.75
2023-02-12T21:46:55.362Z,16.98
2023-02-12T21:49:26.498Z,10.82
2023-02-12T21:51:58.815Z,11.32
2023-02-12T21:54:25.990Z,11.35
2023-02-12T21:56:52.935Z,8.68
2023-02-12T21:59:19.714Z,8.32
2023-02-12T22:01:53.104Z,8.73
2023-02-12T22:04:20.168Z,7.72
2023-02-12T22:06:49.434Z,7.70
2023-02-12T22:09:18.706Z,5.88
2023-02-12T22:11:45.638Z,4.63
2023-02-12T22:14:16.736Z,3.58
2023-02-12T22:16:44.268Z,3.35
2023-02-12T22:19:11.059Z,3.20
2023-02-12T22:21:40.232Z,4.20
2023-02-12T22:24:08.827Z,3.92
2023-02-12T22:26:35.781Z,4.10
2023-02-12T22:29:06.484Z,5.88
2023-02-12T22:31:36.391Z,3.33
2023-02-12T22:34:06.764Z,4.22
2023-02-12T22:36:35.633Z,4.82
2023-02-12T22:39:02.614Z,5.38
2023-02-12T22:41:29.366Z,5.63
2023-02-12T22:43:59.042Z,4.35
2023-02-12T22:46:26.438Z,5.65
2023-02-12T22:48:53.082Z,4.90
2023-02-12T22:51:23.459Z,6.07
2023-02-12T22:53:50.298Z,5.30
2023-02-12T22:56:17.250Z,4.97
2023-02-12T22:58:44.615Z,7.13
2023-02-12T23:01:16.393Z,7.60
2023-02-12T23:03:44.036Z,5.03
2023-02-12T23:06:12.837Z,3.78
2023-02-12T23:08:40.221Z,4.20
2023-02-12T23:11:08.528Z,4.88
2023-02-12T23:13:36.213Z,4.75
2023-02-12T23:16:03.364Z,4.60
2023-02-12T23:18:30.355Z,4.32
2023-02-12T23:20:57.375Z,5.60
2023-02-12T23:23:24.207Z,4.00
2023-02-12T23:25:51.276Z,4.85
2023-02-12T23:28:17.979Z,4.82
2023-02-12T23:30:44.652Z,4.78
2023-02-12T23:33:11.709Z,4.97
2023-02-12T23:35:38.448Z,4.15
2023-02-12T23:38:05.462Z,4.03
2023-02-12T23:40:33.475Z,3.65
2023-02-12T23:43:00.332Z,3.22
2023-02-12T23:45:28.002Z,4.28
2023-02-12T23:47:55.251Z,3.33
2023-02-12T23:50:22.388Z,3.50
2023-02-12T23:52:49.492Z,3.97
2023-02-12T23:55:18.072Z,3.22
2023-02-12T23:57:45.038Z,3.50
